Time;durP1;ratioP1;P1;durP2;ratioP2;P2;SDS_P1;SDS_P2;PMS_P1;PMS_P2;Temp;Humidity;BMP_temperature;BMP_pressure;BME280_temperature;BME280_humidity;BME280_pressure;Samples;Min_cycle;Max_cycle;Signal;HPM_P1;HPM_P2
2022/11/20 00:01:34;;;;;;;;;;;;;;;;;;5068508;28;20003;-66
2022/11/20 00:03:59;;;;;;;;;;;;;;;;;;5073323;28;20270;-66
2022/11/20 00:06:24;;;;;;;;;;;;;;;;;;5063612;28;19954;-66
2022/11/20 00:08:49;;;;;;;;;;;;;;;;;;5063759;28;19923;-66
2022/11/20 00:11:14;;;;;;;;;;;;;;;;;;5068384;28;20066;-66
2022/11/20 00:13:39;;;;;;;;;;;;;;;;;;5070380;28;19916;-66
2022/11/20 00:16:05;;;;;;;;;;;;;;;;;;5065582;28;19917;-66
2022/11/20 00:18:30;;;;;;;;;;;;;;;;;;5068047;28;19913;-66
2022/11/20 00:20:55;;;;;;;;;;;;;;;;;;5073837;28;20007;-66
2022/11/20 00:23:20;;;;;;;;;;;;;;;;;;5071668;28;20331;-66
2022/11/20 00:25:45;;;;;;;;;;;;;;;;;;5062345;28;19917;-67
2022/11/20 00:28:10;;;;;;;;;;;;;;;;;;5065849;28;20453;-67
2022/11/20 00:30:35;;;;;;;;;;;;;;;;;;5068480;28;19917;-67
2022/11/20 00:33:00;;;;;;;;;;;;;;;;;;5077486;28;19913;-67
2022/11/20 00:35:26;;;;;;;;;;;;;;;;;;5068747;28;19920;-67
2022/11/20 00:37:51;;;;;;;;;;;;;;;;;;5063173;28;19912;-67
2022/11/20 00:40:16;;;;;;;;;;;;;;;;;;5065792;28;20011;-67
2022/11/20 00:42:41;;;;;;;;;;;;;;;;;;5069051;28;19920;-67
2022/11/20 00:45:06;;;;;;;;;;;;;;;;;;5063583;28;19920;-67
2022/11/20 00:47:32;;;;;;;;;;;;;;;;;;5075900;28;20403;-67
2022/11/20 00:49:57;;;;;;;;;;;;;;;;;;5063548;28;19916;-67
2022/11/20 00:52:22;;;;;;;;;;;;;;;;;;5071440;28;19923;-67
2022/11/20 00:54:47;;;;;;;;;;;;;;;;;;5065458;28;20016;-68
2022/11/20 00:57:12;;;;;;;;;;;;;;;;;;5070259;28;19913;-66
2022/11/20 00:59:37;;;;;;;;;;;;;;;;;;5069482;28;19913;-66
2022/11/20 01:02:02;;;;;;;;;;;;;;;;;;5072616;28;19921;-67
2022/11/20 01:04:28;;;;;;;;;;;;;;;;;;5066614;28;19912;-67
2022/11/20 01:06:53;;;;;;;;;;;;;;;;;;5067346;28;20447;-67
2022/11/20 01:09:18;;;;;;;;;;;;;;;;;;5066702;28;19916;-66
2022/11/20 01:11:43;;;;;;;;;;;;;;;;;;5064528;28;19944;-67
2022/11/20 01:14:08;;;;;;;;;;;;;;;;;;5071313;28;19919;-67
2022/11/20 01:16:33;;;;;;;;;;;;;;;;;;5065955;28;20384;-67
2022/11/20 01:18:59;;;;;;;;;;;;;;;;;;5099592;28;19912;-66
2022/11/20 01:21:24;;;;;;;;;;;;;;;;;;5070485;28;20324;-67
2022/11/20 01:23:49;;;;;;;;;;;;;;;;;;5062801;28;19959;-67
2022/11/20 01:26:14;;;;;;;;;;;;;;;;;;5070333;28;19923;-67
2022/11/20 01:28:40;;;;;;;;;;;;;;;;;;5068404;28;20377;-67
2022/11/20 01:31:05;;;;;;;;;;;;;;;;;;5069267;28;19962;-67
2022/11/20 01:33:30;;;;;;;;;;;;;;;;;;5068234;28;19934;-67
2022/11/20 01:35:55;;;;;;;;;;;;;;;;;;5073750;28;19912;-66
2022/11/20 01:38:22;;;;;;;;;;;;;;;;;;5065254;28;19924;-66
2022/11/20 01:40:47;;;;;;;;;;;;;;;;;;5068896;28;19934;-67
2022/11/20 01:43:21;;;;;;;;;;;;;;;;;;5062242;28;19916;-67
2022/11/20 01:45:46;;;;;;;;;;;;;;;;;;5064366;28;19913;-67
2022/11/20 01:48:11;;;;;;;;;;;;;;;;;;5066445;28;19978;-67
2022/11/20 01:50:37;;;;;;;;;;;;;;;;;;5068259;28;19917;-66
2022/11/20 01:53:02;;;;;;;;;;;;;;;;;;5070996;28;19913;-66
2022/11/20 01:55:27;;;;;;;;;;;;;;;;;;5060966;28;19913;-67
2022/11/20 01:57:52;;;;;;;;;;;;;;;;;;5062768;28;20410;-67
2022/11/20 02:00:17;;;;;;;;;;;;;;;;;;5066466;28;20281;-67
2022/11/20 02:02:42;;;;;;;;;;;;;;;;;;5065387;28;20385;-68
2022/11/20 02:05:07;;;;;;;;;;;;;;;;;;5079240;28;20019;-67
2022/11/20 02:07:33;;;;;;;;;;;;;;;;;;5067219;28;19913;-68
2022/11/20 02:09:58;;;;;;;;;;;;;;;;;;5067632;28;19916;-68
2022/11/20 02:15:07;;;;;;;;;;;;;;;;;;5070291;28;19919;-67
2022/11/20 02:17:32;;;;;;;;;;;;;;;;;;5069417;28;20281;-67
2022/11/20 02:19:57;;;;;;;;;;;;;;;;;;5070567;28;19912;-66
2022/11/20 02:22:22;;;;;;;;;;;;;;;;;;5081330;28;20484;-66
2022/11/20 02:24:47;;;;;;;;;;;;;;;;;;5070074;28;19931;-66
2022/11/20 02:27:13;;;;;;;;;;;;;;;;;;5067563;28;19912;-67
2022/11/20 02:29:38;;;;;;;;;;;;;;;;;;5067745;28;19916;-66
2022/11/20 02:32:03;;;;;;;;;;;;;;;;;;5069993;28;19953;-67
2022/11/20 02:34:28;;;;;;;;;;;;;;;;;;5072484;28;19982;-66
2022/11/20 02:36:53;;;;;;;;;;;;;;;;;;5074314;28;19912;-67
2022/11/20 02:39:19;;;;;;;;;;;;;;;;;;5076280;28;19913;-67
2022/11/20 02:41:44;;;;;;;;;;;;;;;;;;5071124;28;19962;-67
2022/11/20 02:44:09;;;;;;;;;;;;;;;;;;5068407;28;19916;-66
2022/11/20 02:46:34;;;;;;;;;;;;;;;;;;5076375;28;20296;-66
2022/11/20 02:48:59;;;;;;;;;;;;;;;;;;5063929;28;19967;-66
2022/11/20 02:51:24;;;;;;;;;;;;;;;;;;5068378;28;19919;-66
2022/11/20 02:53:50;;;;;;;;;;;;;;;;;;5068659;28;19908;-66
2022/11/20 02:56:15;;;;;;;;;;;;;;;;;;5067866;28;20387;-67
2022/11/20 02:58:40;;;;;;;;;;;;;;;;;;5067506;28;20369;-67
2022/11/20 03:01:05;;;;;;;;;;;;;;;;;;5070624;28;20010;-67
2022/11/20 03:03:30;;;;;;;;;;;;;;;;;;5062922;28;20391;-67
2022/11/20 03:05:55;;;;;;;;;;;;;;;;;;5060587;28;19916;-68
2022/11/20 03:08:20;;;;;;;;;;;;;;;;;;5070096;28;20449;-67
2022/11/20 03:10:45;;;;;;;;;;;;;;;;;;5068284;28;19923;-67
2022/11/20 03:13:11;;;;;;;;;;;;;;;;;;5072418;28;19913;-67
2022/11/20 03:15:36;;;;;;;;;;;;;;;;;;5068188;28;19961;-67
2022/11/20 03:18:01;;;;;;;;;;;;;;;;;;5072017;28;20633;-67
2022/11/20 03:20:26;;;;;;;;;;;;;;;;;;5071229;28;20023;-67
2022/11/20 03:22:51;;;;;;;;;;;;;;;;;;5071648;28;20391;-67
2022/11/20 03:25:17;;;;;;;;;;;;;;;;;;5073838;28;20277;-68
2022/11/20 03:27:42;;;;;;;;;;;;;;;;;;5070638;28;20296;-67
2022/11/20 03:30:07;;;;;;;;;;;;;;;;;;5069302;28;19928;-67
2022/11/20 03:32:32;;;;;;;;;;;;;;;;;;5081969;28;20387;-67
2022/11/20 03:34:57;;;;;;;;;;;;;;;;;;5075271;28;19912;-67
2022/11/20 03:37:22;;;;;;;;;;;;;;;;;;5069681;28;20266;-66
2022/11/20 03:39:48;;;;;;;;;;;;;;;;;;5073910;28;20372;-67
2022/11/20 03:44:56;;;;;;;;;;;;;;;;;;5063324;28;19919;-67
2022/11/20 03:47:22;;;;;;;;;;;;;;;;;;5068460;28;20347;-66
2022/11/20 03:49:47;;;;;;;;;;;;;;;;;;5073905;28;20384;-66
2022/11/20 03:52:12;;;;;;;;;;;;;;;;;;5074845;28;20369;-66
2022/11/20 03:54:37;;;;;;;;;;;;;;;;;;5084027;28;20020;-66
2022/11/20 03:57:02;;;;;;;;;;;;;;;;;;5062933;28;20385;-66
2022/11/20 03:59:27;;;;;;;;;;;;;;;;;;5072044;28;19913;-67
2022/11/20 04:01:52;;;;;;;;;;;;;;;;;;5068190;28;20412;-67
2022/11/20 04:04:18;;;;;;;;;;;;;;;;;;5071538;28;20368;-67
2022/11/20 04:06:43;;;;;;;;;;;;;;;;;;5077717;28;19920;-67
2022/11/20 04:09:08;;;;;;;;;;;;;;;;;;5073031;28;20357;-67
2022/11/20 04:11:33;;;;;;;;;;;;;;;;;;5070748;28;19948;-66
2022/11/20 04:13:58;;;;;;;;;;;;;;;;;;5065481;28;19912;-67
2022/11/20 04:16:23;;;;;;;;;;;;;;;;;;5066212;28;19916;-67
2022/11/20 04:18:48;;;;;;;;;;;;;;;;;;5058770;28;19913;-67
2022/11/20 04:21:14;;;;;;;;;;;;;;;;;;5067167;28;19974;-67
2022/11/20 04:23:39;;;;;;;;;;;;;;;;;;5070542;28;19917;-67
2022/11/20 04:26:04;;;;;;;;;;;;;;;;;;5065606;28;20003;-67
2022/11/20 04:28:29;;;;;;;;;;;;;;;;;;5063960;28;19970;-67
2022/11/20 04:30:54;;;;;;;;;;;;;;;;;;5071608;28;20007;-67
2022/11/20 04:33:19;;;;;;;;;;;;;;;;;;5087806;28;19914;-67
2022/11/20 04:35:44;;;;;;;;;;;;;;;;;;5070264;28;19920;-67
2022/11/20 04:38:10;;;;;;;;;;;;;;;;;;5071374;28;19909;-67
2022/11/20 04:40:35;;;;;;;;;;;;;;;;;;5062864;28;20427;-67
2022/11/20 04:43:00;;;;;;;;;;;;;;;;;;5065159;28;19912;-67
2022/11/20 04:45:25;;;;;;;;;;;;;;;;;;5073213;28;19908;-67
2022/11/20 04:47:50;;;;;;;;;;;;;;;;;;5071608;28;20276;-67
2022/11/20 04:50:15;;;;;;;;;;;;;;;;;;5073181;28;20284;-67
2022/11/20 04:52:40;;;;;;;;;;;;;;;;;;5087315;28;20053;-66
2022/11/20 04:55:06;;;;;;;;;;;;;;;;;;5071174;28;19920;-66
2022/11/20 04:57:31;;;;;;;;;;;;;;;;;;5071920;28;19912;-67
2022/11/20 04:59:56;;;;;;;;;;;;;;;;;;5065017;28;19913;-67
2022/11/20 05:02:21;;;;;;;;;;;;;;;;;;5085728;28;20569;-67
2022/11/20 05:04:46;;;;;;;;;;;;;;;;;;5072756;28;19912;-67
2022/11/20 05:07:11;;;;;;;;;;;;;;;;;;5075570;28;19924;-67
2022/11/20 05:09:36;;;;;;;;;;;;;;;;;;5066500;28;19916;-68
2022/11/20 05:12:02;;;;;;;;;;;;;;;;;;5072094;28;20372;-67
2022/11/20 05:14:27;;;;;;;;;;;;;;;;;;5066051;28;20374;-68
2022/11/20 05:16:52;;;;;;;;;;;;;;;;;;5070198;28;19912;-67
2022/11/20 05:19:17;;;;;;;;;;;;;;;;;;5070877;28;20341;-67
2022/11/20 05:21:42;;;;;;;;;;;;;;;;;;5067195;28;19970;-67
2022/11/20 05:24:07;;;;;;;;;;;;;;;;;;5066959;28;19927;-67
2022/11/20 05:26:32;;;;;;;;;;;;;;;;;;5060666;28;19920;-66
2022/11/20 05:28:58;;;;;;;;;;;;;;;;;;5068769;28;20086;-67
2022/11/20 05:31:23;;;;;;;;;;;;;;;;;;5074210;28;19919;-66
2022/11/20 05:33:48;;;;;;;;;;;;;;;;;;5072728;28;20369;-66
2022/11/20 05:36:13;;;;;;;;;;;;;;;;;;5060042;28;20317;-66
2022/11/20 05:38:38;;;;;;;;;;;;;;;;;;5085371;28;19912;-66
2022/11/20 05:41:04;;;;;;;;;;;;;;;;;;5066525;28;19908;-66
2022/11/20 05:43:29;;;;;;;;;;;;;;;;;;5062365;28;19920;-66
2022/11/20 05:45:54;;;;;;;;;;;;;;;;;;5070674;28;19943;-67
2022/11/20 05:48:19;;;;;;;;;;;;;;;;;;5065750;28;19921;-67
2022/11/20 05:50:45;;;;;;;;;;;;;;;;;;5070755;28;19924;-67
2022/11/20 05:53:10;;;;;;;;;;;;;;;;;;5067140;28;20385;-67
2022/11/20 05:55:35;;;;;;;;;;;;;;;;;;5070723;28;19912;-67
2022/11/20 05:58:00;;;;;;;;;;;;;;;;;;5067759;28;19920;-67
2022/11/20 06:00:25;;;;;;;;;;;;;;;;;;5069623;28;20194;-67
2022/11/20 06:02:50;;;;;;;;;;;;;;;;;;5068675;28;20291;-67
2022/11/20 06:05:15;;;;;;;;;;;;;;;;;;5070200;28;20312;-67
2022/11/20 06:07:41;;;;;;;;;;;;;;;;;;5079421;28;20007;-67
2022/11/20 06:10:06;;;;;;;;;;;;;;;;;;5069414;28;19916;-67
2022/11/20 06:12:31;;;;;;;;;;;;;;;;;;5073199;28;20389;-67
2022/11/20 06:14:56;;;;;;;;;;;;;;;;;;5071132;28;20373;-67
2022/11/20 06:17:21;;;;;;;;;;;;;;;;;;5052534;28;20526;-67
2022/11/20 06:19:46;;;;;;;;;;;;;;;;;;5076934;28;19966;-67
2022/11/20 06:22:11;;;;;;;;;;;;;;;;;;5087517;28;20266;-67
2022/11/20 06:24:37;;;;;;;;;;;;;;;;;;5065527;28;19972;-66
2022/11/20 06:27:02;;;;;;;;;;;;;;;;;;5066368;28;19958;-66
2022/11/20 06:29:27;;;;;;;;;;;;;;;;;;5064392;28;19925;-67
2022/11/20 06:31:52;;;;;;;;;;;;;;;;;;5068689;28;20470;-67
2022/11/20 06:34:18;;;;;;;;;;;;;;;;;;5076153;28;19919;-67
2022/11/20 06:36:43;;;;;;;;;;;;;;;;;;5070736;28;19960;-67
2022/11/20 06:39:08;;;;;;;;;;;;;;;;;;5067647;28;19912;-67
2022/11/20 06:41:33;;;;;;;;;;;;;;;;;;5068066;28;20373;-66
2022/11/20 06:43:58;;;;;;;;;;;;;;;;;;5070552;28;20392;-66
2022/11/20 06:46:23;;;;;;;;;;;;;;;;;;5075155;28;19912;-66
2022/11/20 06:48:48;;;;;;;;;;;;;;;;;;5073504;28;19916;-65
2022/11/20 06:51:14;;;;;;;;;;;;;;;;;;5071646;28;19935;-66
2022/11/20 06:53:39;;;;;;;;;;;;;;;;;;5076377;28;19913;-67
2022/11/20 06:56:04;;;;;;;;;;;;;;;;;;5070066;28;21195;-66
2022/11/20 06:58:30;;;;;;;;;;;;;;;;;;5088829;28;19913;-66
2022/11/20 07:00:55;;;;;;;;;;;;;;;;;;5068380;28;20304;-66
2022/11/20 07:03:20;;;;;;;;;;;;;;;;;;5074195;28;19976;-67
2022/11/20 07:05:45;;;;;;;;;;;;;;;;;;5087048;28;20384;-67
2022/11/20 07:08:11;;;;;;;;;;;;;;;;;;5072313;28;20392;-67
2022/11/20 07:10:36;;;;;;;;;;;;;;;;;;5073266;28;19916;-66
2022/11/20 07:13:01;;;;;;;;;;;;;;;;;;5072392;28;19916;-67
2022/11/20 07:15:26;;;;;;;;;;;;;;;;;;5075922;28;19916;-67
2022/11/20 07:17:51;;;;;;;;;;;;;;;;;;5070746;28;19909;-67
2022/11/20 07:20:16;;;;;;;;;;;;;;;;;;5070297;28;20200;-67
2022/11/20 07:22:42;;;;;;;;;;;;;;;;;;5075893;28;19913;-67
2022/11/20 07:25:07;;;;;;;;;;;;;;;;;;5072369;28;20257;-67
2022/11/20 07:27:32;;;;;;;;;;;;;;;;;;5067200;28;19917;-67
2022/11/20 07:29:59;;;;;;;;;;;;;;;;;;5069268;28;20296;-66
2022/11/20 07:32:24;;;;;;;;;;;;;;;;;;5070200;28;19916;-67
2022/11/20 07:34:49;;;;;;;;;;;;;;;;;;5071070;28;19983;-66
2022/11/20 07:37:14;;;;;;;;;;;;;;;;;;5086259;28;20327;-66
2022/11/20 07:39:39;;;;;;;;;;;;;;;;;;5069687;28;20365;-66
2022/11/20 07:42:04;;;;;;;;;;;;;;;;;;5075716;28;20003;-66
2022/11/20 07:44:30;;;;;;;;;;;;;;;;;;5070651;28;20346;-67
2022/11/20 07:46:55;;;;;;;;;;;;;;;;;;5084226;28;19924;-66
2022/11/20 07:49:20;;;;;;;;;;;;;;;;;;5075725;28;19916;-67
2022/11/20 07:51:45;;;;;;;;;;;;;;;;;;5069698;28;19923;-67
2022/11/20 07:54:10;;;;;;;;;;;;;;;;;;5075055;28;19962;-67
2022/11/20 07:56:36;;;;;;;;;;;;;;;;;;5072910;28;19956;-68
2022/11/20 07:59:01;;;;;;;;;;;;;;;;;;5065171;28;19966;-68
2022/11/20 08:01:26;;;;;;;;;;;;;;;;;;5066020;28;19974;-68
2022/11/20 08:03:51;;;;;;;;;;;;;;;;;;5066316;28;19912;-68
2022/11/20 08:06:18;;;;;;;;;;;;;;;;;;5065518;28;19919;-68
2022/11/20 08:08:44;;;;;;;;;;;;;;;;;;5063483;28;19943;-67
2022/11/20 08:14:12;;;;;;;;;;;;;;;;;;5073690;28;19944;-68
2022/11/20 08:16:37;;;;;;;;;;;;;;;;;;5066626;28;20380;-68
2022/11/20 08:19:02;;;;;;;;;;;;;;;;;;5062467;28;19931;-69
2022/11/20 08:21:28;;;;;;;;;;;;;;;;;;5063629;28;19912;-69
2022/11/20 08:23:53;;;;;;;;;;;;;;;;;;5065345;28;20291;-69
2022/11/20 08:26:18;;;;;;;;;;;;;;;;;;5066432;28;19912;-69
2022/11/20 08:28:43;;;;;;;;;;;;;;;;;;5078297;28;19968;-69
2022/11/20 08:31:09;;;;;;;;;;;;;;;;;;5064044;28;19919;-69
2022/11/20 08:33:34;;;;;;;;;;;;;;;;;;5072515;28;19917;-69
2022/11/20 08:36:00;;;;;;;;;;;;;;;;;;5069628;28;19923;-69
2022/11/20 08:38:25;;;;;;;;;;;;;;;;;;5068687;28;20016;-68
2022/11/20 08:41:36;;;;;;;;;;;;;;;;;;5066299;28;19912;-68
2022/11/20 08:43:35;;;;;;;;;;;;;;;;;;5062451;28;19927;-68
2022/11/20 08:46:00;;;;;;;;;;;;;;;;;;5055109;28;19917;-68
2022/11/20 08:48:25;;;;;;;;;;;;;;;;;;5065554;28;19917;-68
2022/11/20 08:50:51;;;;;;;;;;;;;;;;;;5068764;28;19943;-68
2022/11/20 08:53:16;;;;;;;;;;;;;;;;;;5071334;28;19917;-69
2022/11/20 08:55:41;;;;;;;;;;;;;;;;;;5068009;28;19952;-69
2022/11/20 08:58:06;;;;;;;;;;;;;;;;;;5062573;28;20293;-69
2022/11/20 09:00:32;;;;;;;;;;;;;;;;;;5062248;28;20281;-69
2022/11/20 09:02:58;;;;;;;;;;;;;;;;;;5063149;28;19908;-68
2022/11/20 09:05:23;;;;;;;;;;;;;;;;;;5065640;28;20357;-69
2022/11/20 09:07:48;;;;;;;;;;;;;;;;;;5064571;28;19946;-69
2022/11/20 09:10:13;;;;;;;;;;;;;;;;;;5067261;28;19916;-70
2022/11/20 09:12:38;;;;;;;;;;;;;;;;;;5064385;28;19939;-69
2022/11/20 09:15:04;;;;;;;;;;;;;;;;;;5066270;28;19921;-69
2022/11/20 09:17:29;;;;;;;;;;;;;;;;;;5080124;28;19924;-69
2022/11/20 09:19:54;;;;;;;;;;;;;;;;;;5068627;28;19923;-69
2022/11/20 09:22:19;;;;;;;;;;;;;;;;;;5068561;28;20331;-69
2022/11/20 09:24:44;;;;;;;;;;;;;;;;;;5079591;28;19920;-69
2022/11/20 09:27:09;;;;;;;;;;;;;;;;;;5072049;28;20301;-68
2022/11/20 09:29:35;;;;;;;;;;;;;;;;;;5071425;28;19925;-68
2022/11/20 09:32:00;;;;;;;;;;;;;;;;;;5065076;28;19956;-68
2022/11/20 09:34:25;;;;;;;;;;;;;;;;;;5079815;28;19916;-68
2022/11/20 09:36:50;;;;;;;;;;;;;;;;;;5065469;28;19913;-68
2022/11/20 09:39:15;;;;;;;;;;;;;;;;;;5066175;28;19929;-67
2022/11/20 09:41:40;;;;;;;;;;;;;;;;;;5058261;28;19917;-69
2022/11/20 09:44:06;;;;;;;;;;;;;;;;;;5064949;28;20006;-69
2022/11/20 09:46:31;;;;;;;;;;;;;;;;;;5060442;28;19920;-69
2022/11/20 09:48:56;;;;;;;;;;;;;;;;;;5069492;28;19927;-69
2022/11/20 09:51:22;;;;;;;;;;;;;;;;;;5067435;28;19912;-69
2022/11/20 09:53:47;;;;;;;;;;;;;;;;;;5058622;28;19912;-68
2022/11/20 09:56:12;;;;;;;;;;;;;;;;;;5098798;28;19912;-69
2022/11/20 09:58:38;;;;;;;;;;;;;;;;;;5053868;28;19920;-68
2022/11/20 10:01:03;;;;;;;;;;;;;;;;;;5063358;28;19920;-68
2022/11/20 10:03:28;;;;;;;;;;;;;;;;;;5063372;28;20369;-69
2022/11/20 10:05:53;;;;;;;;;;;;;;;;;;5061960;28;19967;-69
2022/11/20 10:08:18;;;;;;;;;;;;;;;;;;5062102;28;20273;-69
2022/11/20 10:10:43;;;;;;;;;;;;;;;;;;5057027;28;19920;-69
2022/11/20 10:13:08;;;;;;;;;;;;;;;;;;5062372;28;20253;-72
2022/11/20 10:15:34;;;;;;;;;;;;;;;;;;5064630;28;20004;-72
2022/11/20 10:18:00;;;;;;;;;;;;;;;;;;5066715;28;19909;-72
2022/11/20 10:20:25;;;;;;;;;;;;;;;;;;5069174;28;19916;-70
2022/11/20 10:22:50;;;;;;;;;;;;;;;;;;5058073;28;19913;-70
2022/11/20 10:25:15;;;;;;;;;;;;;;;;;;5086969;28;19920;-71
2022/11/20 10:27:41;;;;;;;;;;;;;;;;;;5080199;28;19974;-72
2022/11/20 10:30:06;;;;;;;;;;;;;;;;;;5066569;28;19920;-72
2022/11/20 10:32:31;;;;;;;;;;;;;;;;;;5070613;28;19912;-70
2022/11/20 10:34:56;;;;;;;;;;;;;;;;;;5086475;28;19921;-72
2022/11/20 10:37:21;;;;;;;;;;;;;;;;;;5066913;28;19920;-71
2022/11/20 10:39:46;;;;;;;;;;;;;;;;;;5064855;28;20007;-71
2022/11/20 10:42:12;;;;;;;;;;;;;;;;;;5062709;28;20329;-71
2022/11/20 10:47:21;;;;;;;;;;;;;;;;;;5056745;28;20483;-70
2022/11/20 10:49:46;;;;;;;;;;;;;;;;;;5064224;28;20019;-70
2022/11/20 10:52:11;;;;;;;;;;;;;;;;;;5064688;28;20270;-72
2022/11/20 10:54:37;;;;;;;;;;;;;;;;;;5064919;28;20002;-72
2022/11/20 10:57:02;;;;;;;;;;;;;;;;;;5064439;28;19972;-71
2022/11/20 10:59:27;;;;;;;;;;;;;;;;;;5058217;28;20297;-71
2022/11/20 11:01:52;;;;;;;;;;;;;;;;;;5064416;28;20277;-72
2022/11/20 11:04:17;;;;;;;;;;;;;;;;;;5067375;28;19959;-72
2022/11/20 11:06:42;;;;;;;;;;;;;;;;;;5065744;28;19909;-72
2022/11/20 11:09:07;;;;;;;;;;;;;;;;;;5063812;28;19916;-72
2022/11/20 11:11:33;;;;;;;;;;;;;;;;;;5062101;28;20441;-72
2022/11/20 11:13:58;;;;;;;;;;;;;;;;;;5056094;28;20553;-72
2022/11/20 11:16:23;;;;;;;;;;;;;;;;;;5061959;28;20333;-72
2022/11/20 11:18:48;;;;;;;;;;;;;;;;;;5055487;28;19913;-72
2022/11/20 11:21:13;;;;;;;;;;;;;;;;;;5055123;28;20304;-72
2022/11/20 11:23:38;;;;;;;;;;;;;;;;;;5065347;28;20298;-71
2022/11/20 11:26:04;;;;;;;;;;;;;;;;;;5070090;28;19916;-71
2022/11/20 11:28:29;;;;;;;;;;;;;;;;;;5062936;28;20388;-71
2022/11/20 11:30:54;;;;;;;;;;;;;;;;;;5057740;28;19917;-70
2022/11/20 11:33:19;;;;;;;;;;;;;;;;;;5065818;28;20368;-71
2022/11/20 11:35:44;;;;;;;;;;;;;;;;;;5068670;28;19969;-71
2022/11/20 11:38:09;;;;;;;;;;;;;;;;;;5064147;28;20370;-71
2022/11/20 11:40:34;;;;;;;;;;;;;;;;;;5061124;28;19927;-71
2022/11/20 11:43:00;;;;;;;;;;;;;;;;;;5063097;28;19955;-71
2022/11/20 11:45:25;;;;;;;;;;;;;;;;;;5064286;28;19923;-71
2022/11/20 11:47:51;;;;;;;;;;;;;;;;;;5064252;28;19921;-71
2022/11/20 11:50:16;;;;;;;;;;;;;;;;;;5064115;28;20308;-71
2022/11/20 11:52:41;;;;;;;;;;;;;;;;;;5062307;28;19912;-71
2022/11/20 11:55:10;;;;;;;;;;;;;;;;;;5063820;28;19920;-71
2022/11/20 11:57:35;;;;;;;;;;;;;;;;;;5066239;28;19970;-71
2022/11/20 12:00:00;;;;;;;;;;;;;;;;;;5077971;28;20003;-72
2022/11/20 12:02:25;;;;;;;;;;;;;;;;;;5079330;28;20269;-71
2022/11/20 12:04:50;;;;;;;;;;;;;;;;;;5067652;28;20003;-71
2022/11/20 12:07:16;;;;;;;;;;;;;;;;;;5070995;28;19923;-72
2022/11/20 12:09:41;;;;;;;;;;;;;;;;;;5071790;28;19916;-71
2022/11/20 12:12:06;;;;;;;;;;;;;;;;;;5072177;28;20058;-72
2022/11/20 12:14:31;;;;;;;;;;;;;;;;;;5069542;28;19965;-72
2022/11/20 12:16:57;;;;;;;;;;;;;;;;;;5075962;28;19916;-71
2022/11/20 12:19:22;;;;;;;;;;;;;;;;;;5069834;28;19913;-71
2022/11/20 12:21:47;;;;;;;;;;;;;;;;;;5072339;28;19912;-71
2022/11/20 12:24:12;;;;;;;;;;;;;;;;;;5069345;28;19917;-71
2022/11/20 12:26:38;;;;;;;;;;;;;;;;;;5066266;28;19940;-70
2022/11/20 12:29:03;;;;;;;;;;;;;;;;;;5061481;28;19925;-71
2022/11/20 12:31:28;;;;;;;;;;;;;;;;;;5069735;28;20388;-71
2022/11/20 12:33:53;;;;;;;;;;;;;;;;;;5069667;28;19954;-71
2022/11/20 12:36:18;;;;;;;;;;;;;;;;;;5063150;28;19990;-69
2022/11/20 12:38:43;;;;;;;;;;;;;;;;;;5063941;28;20003;-70
2022/11/20 12:41:09;;;;;;;;;;;;;;;;;;5057583;28;19913;-71
2022/11/20 12:46:18;;;;;;;;;;;;;;;;;;5067525;28;19962;-70
2022/11/20 12:48:43;;;;;;;;;;;;;;;;;;5064359;28;19916;-71
2022/11/20 12:51:08;;;;;;;;;;;;;;;;;;5067952;28;20387;-67
2022/11/20 12:53:33;;;;;;;;;;;;;;;;;;5075220;28;19956;-67
2022/11/20 12:55:58;;;;;;;;;;;;;;;;;;5063081;28;19915;-64
2022/11/20 12:58:23;;;;;;;;;;;;;;;;;;5060916;28;19955;-66
2022/11/20 13:00:48;;;;;;;;;;;;;;;;;;5062007;28;19936;-65
2022/11/20 13:03:14;;;;;;;;;;;;;;;;;;5065807;28;19935;-66
2022/11/20 13:05:39;;;;;;;;;;;;;;;;;;5065845;28;20377;-66
2022/11/20 13:08:04;;;;;;;;;;;;;;;;;;5067116;28;20384;-67
2022/11/20 13:10:29;;;;;;;;;;;;;;;;;;5060449;28;19959;-66
2022/11/20 13:12:54;;;;;;;;;;;;;;;;;;5065973;28;19954;-66
2022/11/20 13:15:19;;;;;;;;;;;;;;;;;;5064489;28;19969;-66
2022/11/20 13:17:45;;;;;;;;;;;;;;;;;;5056290;28;19917;-66
2022/11/20 13:20:10;;;;;;;;;;;;;;;;;;5062375;28;19913;-68
2022/11/20 13:22:35;;;;;;;;;;;;;;;;;;5070267;28;19982;-68
2022/11/20 13:25:00;;;;;;;;;;;;;;;;;;5069279;28;20330;-67
2022/11/20 13:27:25;;;;;;;;;;;;;;;;;;5068214;28;19923;-67
2022/11/20 13:29:50;;;;;;;;;;;;;;;;;;5065142;28;20284;-67
2022/11/20 13:32:16;;;;;;;;;;;;;;;;;;5069022;28;19923;-67
2022/11/20 13:34:41;;;;;;;;;;;;;;;;;;5064224;28;19995;-67
2022/11/20 13:37:06;;;;;;;;;;;;;;;;;;5064882;28;20011;-68
2022/11/20 13:39:31;;;;;;;;;;;;;;;;;;5065506;28;20388;-67
2022/11/20 13:41:56;;;;;;;;;;;;;;;;;;5070381;28;19974;-67
2022/11/20 13:44:21;;;;;;;;;;;;;;;;;;5070540;28;19958;-67
2022/11/20 13:46:47;;;;;;;;;;;;;;;;;;5063418;28;19912;-67
2022/11/20 13:49:12;;;;;;;;;;;;;;;;;;5069506;28;20372;-67
2022/11/20 13:51:37;;;;;;;;;;;;;;;;;;5085480;28;19913;-67
2022/11/20 13:54:02;;;;;;;;;;;;;;;;;;5067750;28;19920;-68
2022/11/20 13:56:27;;;;;;;;;;;;;;;;;;5062772;28;20283;-67
2022/11/20 13:58:52;;;;;;;;;;;;;;;;;;5067326;28;19958;-68
2022/11/20 14:01:18;;;;;;;;;;;;;;;;;;5069144;28;20519;-68
2022/11/20 14:03:43;;;;;;;;;;;;;;;;;;5069064;28;20494;-67
2022/11/20 14:06:08;;;;;;;;;;;;;;;;;;5065646;28;19920;-67
2022/11/20 14:08:33;;;;;;;;;;;;;;;;;;5062088;28;20004;-67
2022/11/20 14:10:58;;;;;;;;;;;;;;;;;;5063618;28;19912;-66
2022/11/20 14:13:24;;;;;;;;;;;;;;;;;;5068186;28;19913;-66
2022/11/20 14:15:49;;;;;;;;;;;;;;;;;;5068748;28;20023;-66
2022/11/20 14:18:14;;;;;;;;;;;;;;;;;;5068823;28;20291;-66
2022/11/20 14:20:39;;;;;;;;;;;;;;;;;;5069203;28;19912;-67
2022/11/20 14:23:05;;;;;;;;;;;;;;;;;;5066315;28;19916;-67
2022/11/20 14:25:30;;;;;;;;;;;;;;;;;;5067863;28;19920;-65
2022/11/20 14:27:56;;;;;;;;;;;;;;;;;;5067921;28;19927;-65
2022/11/20 14:30:21;;;;;;;;;;;;;;;;;;5073606;28;19927;-65
2022/11/20 14:32:46;;;;;;;;;;;;;;;;;;5062519;28;19912;-65
2022/11/20 14:35:11;;;;;;;;;;;;;;;;;;5068312;28;19912;-66
2022/11/20 14:37:36;;;;;;;;;;;;;;;;;;5073568;28;19917;-66
2022/11/20 14:40:01;;;;;;;;;;;;;;;;;;5061044;28;19913;-65
2022/11/20 14:42:26;;;;;;;;;;;;;;;;;;5063316;28;20339;-65
2022/11/20 14:44:52;;;;;;;;;;;;;;;;;;5064651;28;19919;-65
2022/11/20 14:47:17;;;;;;;;;;;;;;;;;;5066934;28;19975;-66
2022/11/20 14:49:42;;;;;;;;;;;;;;;;;;5068167;28;20276;-66
2022/11/20 14:52:07;;;;;;;;;;;;;;;;;;5067687;28;19913;-66
2022/11/20 14:54:33;;;;;;;;;;;;;;;;;;5064377;28;19912;-66
2022/11/20 14:56:58;;;;;;;;;;;;;;;;;;5066301;28;20065;-65
2022/11/20 14:59:23;;;;;;;;;;;;;;;;;;5058278;28;19912;-65
2022/11/20 15:01:48;;;;;;;;;;;;;;;;;;5063401;28;19920;-67
2022/11/20 15:04:13;;;;;;;;;;;;;;;;;;5068472;28;20273;-66
2022/11/20 15:06:39;;;;;;;;;;;;;;;;;;5071625;28;20009;-65
2022/11/20 15:09:04;;;;;;;;;;;;;;;;;;5070901;28;19938;-66
2022/11/20 15:11:30;;;;;;;;;;;;;;;;;;5071126;28;19927;-66
2022/11/20 15:13:55;;;;;;;;;;;;;;;;;;5071568;28;20296;-65
2022/11/20 15:16:20;;;;;;;;;;;;;;;;;;5065685;28;20016;-66
2022/11/20 15:18:45;;;;;;;;;;;;;;;;;;5070423;28;19920;-67
2022/11/20 15:21:11;;;;;;;;;;;;;;;;;;5072098;28;19920;-66
2022/11/20 15:23:36;;;;;;;;;;;;;;;;;;5070576;28;19917;-67
2022/11/20 15:26:01;;;;;;;;;;;;;;;;;;5084417;28;19919;-66
2022/11/20 15:28:26;;;;;;;;;;;;;;;;;;5063226;28;20291;-66
2022/11/20 15:30:51;;;;;;;;;;;;;;;;;;5071296;28;19912;-66
2022/11/20 15:33:16;;;;;;;;;;;;;;;;;;5070516;28;19935;-66
2022/11/20 15:35:42;;;;;;;;;;;;;;;;;;5069786;28;19912;-66
2022/11/20 15:38:07;;;;;;;;;;;;;;;;;;5064168;28;19916;-66
2022/11/20 15:40:32;;;;;;;;;;;;;;;;;;5068922;28;20011;-66
2022/11/20 15:43:03;;;;;;;;;;;;;;;;;;5070623;28;19913;-65
2022/11/20 15:45:29;;;;;;;;;;;;;;;;;;5069393;28;19935;-67
2022/11/20 15:47:54;;;;;;;;;;;;;;;;;;5065984;28;20269;-65
2022/11/20 15:50:19;;;;;;;;;;;;;;;;;;5066864;28;19985;-66
2022/11/20 15:52:44;;;;;;;;;;;;;;;;;;5072599;28;19913;-66
2022/11/20 15:55:09;;;;;;;;;;;;;;;;;;5070168;28;19919;-66
2022/11/20 15:57:34;;;;;;;;;;;;;;;;;;5064810;28;19912;-66
2022/11/20 15:59:59;;;;;;;;;;;;;;;;;;5064244;28;20262;-65
2022/11/20 16:02:24;;;;;;;;;;;;;;;;;;5071023;28;19920;-65
2022/11/20 16:04:50;;;;;;;;;;;;;;;;;;5066965;28;19913;-65
2022/11/20 16:07:15;;;;;;;;;;;;;;;;;;5080237;28;20030;-66
2022/11/20 16:09:40;;;;;;;;;;;;;;;;;;5069435;28;20330;-65
2022/11/20 16:12:05;;;;;;;;;;;;;;;;;;5068276;28;20453;-65
2022/11/20 16:17:15;;;;;;;;;;;;;;;;;;5066618;28;20264;-65
2022/11/20 16:19:40;;;;;;;;;;;;;;;;;;5069549;28;19913;-65
2022/11/20 16:22:05;;;;;;;;;;;;;;;;;;5060730;28;20025;-64
2022/11/20 16:24:30;;;;;;;;;;;;;;;;;;5068253;28;19958;-65
2022/11/20 16:26:55;;;;;;;;;;;;;;;;;;5065784;28;19916;-65
2022/11/20 16:29:20;;;;;;;;;;;;;;;;;;5060040;28;19925;-66
2022/11/20 16:31:45;;;;;;;;;;;;;;;;;;5065325;28;20017;-67
2022/11/20 16:34:11;;;;;;;;;;;;;;;;;;5058565;28;19923;-68
2022/11/20 16:36:36;;;;;;;;;;;;;;;;;;5060200;28;19916;-67
2022/11/20 16:39:01;;;;;;;;;;;;;;;;;;5062746;28;19912;-66
2022/11/20 16:41:26;;;;;;;;;;;;;;;;;;5056205;28;20266;-67
2022/11/20 16:43:51;;;;;;;;;;;;;;;;;;5065928;28;19912;-65
2022/11/20 16:46:16;;;;;;;;;;;;;;;;;;5066211;28;19920;-66
2022/11/20 16:48:42;;;;;;;;;;;;;;;;;;5067742;28;20007;-66